Time;durP1;ratioP1;P1;durP2;ratioP2;P2;SDS_P1;SDS_P2;PMS_P1;PMS_P2;Temp;Humidity;BMP_temperature;BMP_pressure;BME280_temperature;BME280_humidity;BME280_pressure;Samples;Min_cycle;Max_cycle;Signal;HPM_P1;HPM_P2
2022/08/20 00:02:19;;;;;;;5.45;2.83;;;;;;;24.83;58.49;101488.31;4965222;28;20038;-64
2022/08/20 00:04:44;;;;;;;5.38;2.70;;;;;;;24.81;58.30;101483.13;4982253;28;20398;-65
2022/08/20 00:07:09;;;;;;;5.15;2.50;;;;;;;24.85;58.46;101491.66;4971860;28;20035;-64
2022/08/20 00:09:35;;;;;;;5.03;2.80;;;;;;;24.84;58.29;101482.81;4975443;28;20934;-64
2022/08/20 00:12:00;;;;;;;4.70;2.40;;;;;;;24.84;58.54;101479.31;4976762;28;20030;-64
2022/08/20 00:14:25;;;;;;;4.57;2.45;;;;;;;24.84;58.71;101474.81;4968005;28;20027;-64
2022/08/20 00:16:51;;;;;;;3.90;2.30;;;;;;;24.83;58.52;101469.66;4962620;28;20486;-64
2022/08/20 00:19:17;;;;;;;4.63;2.78;;;;;;;24.78;58.60;101465.63;4975463;28;20386;-67
2022/08/20 00:21:42;;;;;;;5.18;3.00;;;;;;;24.80;58.59;101468.13;4976219;28;20034;-64
2022/08/20 00:24:08;;;;;;;5.35;2.50;;;;;;;24.79;58.63;101458.47;4980120;28;20057;-64
2022/08/20 00:26:33;;;;;;;4.47;2.65;;;;;;;24.78;58.50;101467.44;4974033;28;20046;-64
2022/08/20 00:28:58;;;;;;;4.22;2.33;;;;;;;24.80;58.60;101468.97;4969842;28;20035;-64
2022/08/20 00:31:24;;;;;;;4.18;2.40;;;;;;;24.77;58.53;101465.78;4977026;28;20037;-63
2022/08/20 00:33:51;;;;;;;5.60;2.50;;;;;;;24.79;58.71;101477.13;4976657;28;20494;-63
2022/08/20 00:36:17;;;;;;;4.10;2.17;;;;;;;24.68;58.18;101450.72;4978207;28;20030;-67
2022/08/20 00:38:44;;;;;;;4.22;2.40;;;;;;;24.81;58.92;101480.47;4976586;28;20463;-63
2022/08/20 00:41:13;;;;;;;5.35;2.85;;;;;;;24.80;58.86;101473.44;4985572;28;20444;-67
2022/08/20 00:43:42;;;;;;;4.38;2.63;;;;;;;24.72;58.59;101468.03;4976965;28;20088;-63
2022/08/20 00:46:11;;;;;;;4.40;2.65;;;;;;;24.78;58.81;101470.97;4984122;28;20038;-66
2022/08/20 00:48:41;;;;;;;5.75;2.88;;;;;;;24.77;58.61;101471.94;4987271;28;20073;-69
2022/08/20 00:51:27;;;;;;;6.05;2.60;;;;;;;24.75;58.43;101473.06;4978929;28;20053;-64
2022/08/20 00:53:56;;;;;;;4.68;2.80;;;;;;;24.78;58.68;101478.97;4973050;28;20038;-64
2022/08/20 00:56:22;;;;;;;4.40;2.53;;;;;;;24.78;58.79;101468.28;4968940;28;20030;-65
2022/08/20 00:58:49;;;;;;;4.60;2.40;;;;;;;24.73;58.57;101475.91;4981081;28;20475;-64
2022/08/20 01:01:15;;;;;;;4.28;2.40;;;;;;;24.73;58.70;101475.06;4978335;28;20041;-68
2022/08/20 01:03:41;;;;;;;4.20;2.40;;;;;;;24.75;58.78;101473.94;4977108;28;20026;-64
2022/08/20 01:06:10;;;;;;;4.70;2.80;;;;;;;24.74;58.75;101477.56;4977762;28;20042;-66
2022/08/20 01:08:37;;;;;;;4.22;2.83;;;;;;;24.74;58.65;101474.91;4977477;28;20081;-65
2022/08/20 01:11:09;;;;;;;4.70;2.53;;;;;;;24.71;58.61;101469.06;4981438;28;20092;-64
2022/08/20 01:13:37;;;;;;;5.57;2.60;;;;;;;24.74;58.71;101477.56;4977357;28;20048;-64
2022/08/20 01:16:09;;;;;;;4.85;2.90;;;;;;;24.71;58.85;101466.41;4970753;28;20034;-64
2022/08/20 01:18:37;;;;;;;5.15;2.80;;;;;;;24.72;58.91;101468.03;4979700;28;20022;-65
2022/08/20 01:21:05;;;;;;;4.75;2.55;;;;;;;24.72;58.78;101470.72;4973068;28;20463;-64
2022/08/20 01:23:33;;;;;;;4.15;2.58;;;;;;;24.72;58.92;101468.03;4975919;28;20106;-64
2022/08/20 01:26:02;;;;;;;4.63;2.45;;;;;;;24.71;58.73;101472.56;4971689;28;20046;-65
2022/08/20 01:28:46;;;;;;;4.72;2.65;;;;;;;24.68;58.75;101470.19;4979293;28;20498;-67
2022/08/20 01:31:16;;;;;;;5.40;2.92;;;;;;;24.67;58.96;101471.16;4978976;28;20482;-66
2022/08/20 01:33:42;;;;;;;5.30;3.08;;;;;;;24.67;58.60;101481.84;4973526;28;20042;-64
2022/08/20 01:36:09;;;;;;;4.22;2.75;;;;;;;24.68;58.56;101472.84;4977701;28;20064;-66
2022/08/20 01:38:35;;;;;;;5.40;2.75;;;;;;;24.71;58.59;101475.22;4971713;28;20069;-64
2022/08/20 01:41:38;;;;;;;4.95;2.90;;;;;;;24.71;58.85;101475.22;4972126;28;20026;-66
2022/08/20 01:44:04;;;;;;;4.95;2.80;;;;;;;24.68;58.98;101464.03;4974107;28;20117;-64
2022/08/20 01:46:35;;;;;;;4.82;2.80;;;;;;;24.70;58.64;101470.03;4966083;28;20665;-62
2022/08/20 01:49:07;;;;;;;5.20;2.97;;;;;;;24.67;58.84;101468.50;4983348;28;20439;-66
2022/08/20 01:51:32;;;;;;;4.63;2.63;;;;;;;24.66;59.02;101463.31;4975243;28;20034;-66
2022/08/20 01:54:00;;;;;;;5.37;3.00;;;;;;;24.70;58.91;101480.69;4977907;28;20049;-64
2022/08/20 01:56:29;;;;;;;5.47;3.05;;;;;;;24.65;58.71;101467.00;4966678;28;20320;-64
2022/08/20 01:58:57;;;;;;;4.35;2.50;;;;;;;24.66;58.73;101480.19;4977867;28;20035;-64
2022/08/20 02:01:25;;;;;;;7.53;3.25;;;;;;;24.63;58.53;101475.16;4984481;28;20034;-64
2022/08/20 02:03:52;;;;;;;5.32;3.10;;;;;;;24.61;58.59;101469.16;4981455;28;20579;-64
2022/08/20 02:06:18;;;;;;;4.50;2.90;;;;;;;24.62;59.02;101469.00;4983699;28;20466;-68
2022/08/20 02:08:44;;;;;;;4.70;3.15;;;;;;;24.57;58.50;101465.94;4968756;28;20045;-69
2022/08/20 02:11:10;;;;;;;4.57;2.83;;;;;;;24.62;58.93;101479.66;4984170;28;20035;-64
2022/08/20 02:13:35;;;;;;;5.57;3.08;;;;;;;24.59;58.39;101471.97;4984169;28;20462;-64
2022/08/20 02:16:01;;;;;;;6.57;3.33;;;;;;;24.63;58.90;101486.63;4983833;28;20038;-65
2022/08/20 02:18:26;;;;;;;6.00;3.20;;;;;;;24.63;58.50;101485.81;4983157;28;20049;-64
2022/08/20 02:20:51;;;;;;;5.25;3.03;;;;;;;24.62;58.44;101476.13;4964824;28;20031;-64
2022/08/20 02:23:17;;;;;;;6.03;3.20;;;;;;;24.57;58.86;101476.59;4965643;28;20035;-64
2022/08/20 02:25:46;;;;;;;5.50;3.20;;;;;;;24.59;58.58;101476.44;4983883;28;20125;-67
2022/08/20 02:28:15;;;;;;;5.78;3.17;;;;;;;24.63;58.37;101486.63;4983822;28;20066;-63
2022/08/20 02:30:45;;;;;;;7.22;3.30;;;;;;;24.59;58.69;101476.44;4969455;28;20488;-67
2022/08/20 02:33:13;;;;;;;5.93;3.38;;;;;;;24.62;58.41;101481.47;4984083;28;20467;-65
2022/08/20 02:35:41;;;;;;;5.88;3.13;;;;;;;24.51;58.71;101457.69;4983578;28;20030;-64
2022/08/20 02:38:07;;;;;;;6.07;3.10;;;;;;;24.61;58.51;101477.97;4974438;28;20074;-68
2022/08/20 02:40:32;;;;;;;5.05;2.80;;;;;;;24.57;58.90;101471.25;4969323;28;20411;-66
2022/08/20 02:42:59;;;;;;;6.68;3.25;;;;;;;24.55;58.85;101475.03;4983213;28;20033;-66
2022/08/20 02:45:25;;;;;;;5.88;3.30;;;;;;;24.59;58.66;101490.63;4983660;28;20050;-68
2022/08/20 02:47:55;;;;;;;4.90;2.88;;;;;;;24.54;58.32;101481.34;4983427;28;20066;-63
2022/08/20 02:50:23;;;;;;;6.25;3.33;;;;;;;24.47;58.41;101475.81;4983315;28;20037;-63
2022/08/20 02:52:49;;;;;;;6.15;3.30;;;;;;;24.56;58.68;101490.03;4983073;28;20049;-68
2022/08/20 02:55:14;;;;;;;6.38;3.22;;;;;;;24.56;58.76;101493.59;4982185;28;20037;-64
2022/08/20 02:57:40;;;;;;;5.43;2.90;;;;;;;24.56;58.49;101490.91;4965850;28;20379;-65
2022/08/20 03:00:10;;;;;;;5.65;3.33;;;;;;;24.56;58.28;101490.03;4977130;28;20035;-65
2022/08/20 03:02:35;;;;;;;6.95;3.72;;;;;;;24.55;58.72;101486.53;4964067;28;20089;-66
2022/08/20 03:05:00;;;;;;;7.35;3.67;;;;;;;24.50;58.36;101480.81;4963663;28;20035;-65
2022/08/20 03:07:26;;;;;;;6.00;3.88;;;;;;;24.53;58.38;101488.53;4964239;28;20598;-64
2022/08/20 03:09:51;;;;;;;6.80;4.10;;;;;;;24.50;58.49;101483.50;4963871;28;20023;-63
2022/08/20 03:12:16;;;;;;;4.73;3.53;;;;;;;24.51;58.66;101489.66;4968081;28;20279;-65
2022/08/20 03:14:41;;;;;;;5.90;3.47;;;;;;;24.49;58.41;101486.31;4971342;28;20046;-64
2022/08/20 03:17:07;;;;;;;6.03;3.88;;;;;;;24.50;58.65;101490.63;4966486;28;20851;-64
2022/08/20 03:19:32;;;;;;;6.55;4.05;;;;;;;24.50;58.48;101488.81;4968939;28;20030;-63
2022/08/20 03:21:57;;;;;;;6.50;4.05;;;;;;;24.50;58.12;101490.63;4963524;28;20065;-64
2022/08/20 03:24:23;;;;;;;6.57;3.85;;;;;;;24.49;58.29;101491.63;4975924;28;20113;-64
2022/08/20 03:26:48;;;;;;;7.60;4.27;;;;;;;24.49;58.29;101495.13;4974329;28;20053;-65
2022/08/20 03:29:13;;;;;;;6.80;3.70;;;;;;;24.49;58.33;101500.47;4981594;28;20026;-61
2022/08/20 03:31:39;;;;;;;6.20;3.83;;;;;;;24.48;58.03;101496.09;4967835;28;20070;-67
2022/08/20 03:34:04;;;;;;;8.48;3.97;;;;;;;24.45;58.06;101489.28;4970835;28;20251;-64
2022/08/20 03:36:30;;;;;;;6.28;3.70;;;;;;;24.43;58.31;101503.72;4972601;28;20038;-65
2022/08/20 03:38:57;;;;;;;6.18;3.55;;;;;;;24.45;58.25;101502.59;4974229;28;20507;-64
2022/08/20 03:41:22;;;;;;;7.20;4.13;;;;;;;24.44;57.93;101506.22;4963485;28;20488;-64
2022/08/20 03:43:48;;;;;;;6.85;3.60;;;;;;;24.43;57.95;101507.25;4976777;28;20463;-64
2022/08/20 03:46:13;;;;;;;6.80;3.72;;;;;;;24.40;58.27;101507.53;4974458;28;20031;-64
2022/08/20 03:48:38;;;;;;;6.93;3.58;;;;;;;24.36;58.03;101497.34;4979143;28;20038;-68
2022/08/20 03:51:04;;;;;;;6.47;3.77;;;;;;;24.39;58.03;101507.69;4982011;28;20160;-65
2022/08/20 03:53:30;;;;;;;8.40;3.60;;;;;;;24.39;57.50;101499.69;4973090;28;20468;-64
2022/08/20 03:55:59;;;;;;;7.28;3.88;;;;;;;24.39;57.69;101508.53;4978676;28;20045;-66
2022/08/20 03:58:26;;;;;;;7.68;3.88;;;;;;;24.40;57.97;101504.88;4971720;28;20744;-68
2022/08/20 04:00:51;;;;;;;7.30;3.78;;;;;;;24.38;57.83;101503.34;4971424;28;20070;-64
2022/08/20 04:03:18;;;;;;;6.43;3.55;;;;;;;24.39;57.83;101508.53;4976751;28;20065;-65
2022/08/20 04:05:43;;;;;;;6.75;3.60;;;;;;;24.39;57.75;101508.53;4972175;28;20031;-64
2022/08/20 04:08:31;;;;;;;6.63;3.50;;;;;;;24.36;57.77;101502.66;4969139;28;20088;-64
2022/08/20 04:10:57;;;;;;;8.13;4.25;;;;;;;24.39;57.50;101510.34;4966107;28;20081;-67
2022/08/20 04:13:24;;;;;;;6.65;3.70;;;;;;;24.38;57.88;101514.00;4976884;28;20133;-67
2022/08/20 04:15:53;;;;;;;6.25;3.45;;;;;;;24.39;57.59;101521.00;4980503;28;20520;-65
2022/08/20 04:18:21;;;;;;;6.63;3.50;;;;;;;24.35;57.39;101517.78;4977793;28;20674;-65
2022/08/20 04:20:47;;;;;;;6.72;3.70;;;;;;;24.38;57.43;101524.66;4980990;28;20153;-65
2022/08/20 04:23:13;;;;;;;5.82;3.80;;;;;;;24.33;57.84;101521.59;4962773;28;20127;-65
2022/08/20 04:25:40;;;;;;;7.43;3.88;;;;;;;24.35;57.69;101527.63;4966144;28;20047;-64
2022/08/20 04:28:09;;;;;;;8.43;4.10;;;;;;;24.36;57.47;101526.63;4976583;28;20611;-64
2022/08/20 04:30:34;;;;;;;7.82;4.55;;;;;;;24.34;57.49;101520.59;4974931;28;20038;-65
2022/08/20 04:33:00;;;;;;;5.82;3.80;;;;;;;24.37;57.84;101529.16;4967861;28;20038;-67
2022/08/20 04:35:26;;;;;;;9.85;4.68;;;;;;;24.31;57.56;101523.56;4970069;28;20605;-64
2022/08/20 04:38:01;;;;;;;6.72;4.53;;;;;;;24.37;57.73;101534.47;4972579;28;20022;-67
2022/08/20 04:43:11;;;;;;;6.70;4.97;;;;;;;24.34;57.67;101541.91;4962462;28;20439;-65
2022/08/20 04:45:36;;;;;;;9.68;5.88;;;;;;;24.30;57.58;101544.03;4981012;28;20038;-65
2022/08/20 04:48:04;;;;;;;10.13;5.97;;;;;;;24.30;57.68;101537.88;4970358;28;20038;-63
2022/08/20 04:50:34;;;;;;;8.05;5.32;;;;;;;24.35;57.65;101557.75;4977679;28;20077;-64
2022/08/20 04:53:05;;;;;;;7.15;5.50;;;;;;;24.32;57.56;101547.38;4969148;28;20030;-63
2022/08/20 04:55:32;;;;;;;8.20;5.75;;;;;;;24.33;57.42;101556.22;4976570;28;20109;-64
2022/08/20 04:58:06;;;;;;;11.15;6.13;;;;;;;24.31;57.29;101558.19;4965662;28;20562;-64
2022/08/20 05:00:32;;;;;;;8.80;5.75;;;;;;;24.29;57.54;101553.00;4962594;28;20475;-64
2022/08/20 05:02:58;;;;;;;9.45;5.88;;;;;;;24.29;57.32;101553.00;4968544;28;20034;-64
2022/08/20 05:05:23;;;;;;;8.10;5.82;;;;;;;24.30;57.17;101565.34;4978856;28;20041;-64
2022/08/20 05:07:49;;;;;;;9.15;6.70;;;;;;;24.30;57.05;101568.00;4974640;28;20030;-63
2022/08/20 05:10:16;;;;;;;9.30;6.45;;;;;;;24.30;57.17;101568.00;4979609;28;20049;-63
2022/08/20 05:12:43;;;;;;;8.25;6.32;;;;;;;24.26;57.18;101567.47;4966855;28;20038;-69
2022/08/20 05:15:12;;;;;;;8.80;6.22;;;;;;;24.28;56.95;101567.31;4974787;28;20034;-65
2022/08/20 05:17:39;;;;;;;7.97;5.85;;;;;;;24.29;57.17;101568.97;4970163;28;20027;-63
2022/08/20 05:20:06;;;;;;;9.02;6.18;;;;;;;24.26;57.13;101570.13;4972869;28;20053;-67
2022/08/20 05:22:31;;;;;;;8.60;6.05;;;;;;;24.29;57.36;101568.16;4972939;28;20027;-63
2022/08/20 05:24:58;;;;;;;7.80;5.50;;;;;;;24.25;56.81;101565.78;4976533;28;20390;-63
2022/08/20 05:27:25;;;;;;;9.32;6.63;;;;;;;24.29;57.24;101574.31;4966057;28;20039;-64
2022/08/20 05:29:59;;;;;;;9.40;6.75;;;;;;;24.29;57.00;101568.97;4975354;28;20031;-65
2022/08/20 05:32:25;;;;;;;;;;;;;;;24.29;57.24;101576.16;4977001;28;20154;-63
2022/08/20 05:34:50;;;;;;;8.80;6.32;;;;;;;24.31;57.00;101582.16;4967327;28;19997;-63
2022/08/20 05:37:16;;;;;;;9.07;6.50;;;;;;;24.31;57.03;101576.81;4967004;28;20031;-64
2022/08/20 05:39:42;;;;;;;8.32;6.32;;;;;;;24.32;56.78;101575.84;4971222;28;20491;-64
2022/08/20 05:42:08;;;;;;;9.73;6.70;;;;;;;24.32;57.21;101582.00;4979664;28;20026;-64
2022/08/20 05:44:35;;;;;;;7.75;6.55;;;;;;;24.31;57.19;101585.69;4976625;28;20101;-67
2022/08/20 05:47:01;;;;;;;10.27;7.05;;;;;;;24.28;56.97;101585.97;4975467;28;20069;-63
2022/08/20 05:49:27;;;;;;;8.10;7.05;;;;;;;24.31;56.71;101590.16;4974585;28;20034;-64
2022/08/20 05:51:52;;;;;;;9.80;6.83;;;;;;;24.30;56.63;101591.16;4976172;28;20318;-63
2022/08/20 05:54:18;;;;;;;12.98;7.47;;;;;;;24.26;56.87;101580.78;4972945;28;20022;-64
2022/08/20 05:56:43;;;;;;;12.48;7.60;;;;;;;24.26;56.60;101588.78;4971301;28;20034;-64
2022/08/20 05:59:09;;;;;;;10.15;7.43;;;;;;;24.29;56.59;101589.47;4974798;28;20034;-64
2022/08/20 06:01:37;;;;;;;12.05;7.65;;;;;;;24.29;56.72;101589.47;4965914;28;20109;-63
2022/08/20 06:06:49;;;;;;;10.27;7.55;;;;;;;24.29;56.74;101600.94;4977805;28;20038;-70
2022/08/20 06:09:16;;;;;;;11.18;7.68;;;;;;;24.30;56.66;101596.47;4971725;28;20030;-65
2022/08/20 06:11:42;;;;;;;11.75;8.13;;;;;;;24.25;56.90;101588.94;4964865;28;20034;-63
2022/08/20 06:14:07;;;;;;;11.00;8.17;;;;;;;24.29;56.91;101603.59;4982800;28;20204;-67
2022/08/20 06:16:32;;;;;;;11.02;8.30;;;;;;;24.25;56.90;101595.09;4984263;28;20018;-66
2022/08/20 06:18:58;;;;;;;11.90;7.70;;;;;;;24.29;56.77;101598.28;4976042;28;20496;-66
2022/08/20 06:21:23;;;;;;;10.98;7.93;;;;;;;24.24;57.00;101596.09;4964963;28;20045;-64
2022/08/20 06:23:48;;;;;;;9.93;7.70;;;;;;;24.25;56.70;101596.91;4976754;28;20049;-63
2022/08/20 06:26:14;;;;;;;10.57;8.13;;;;;;;24.29;57.08;101600.94;4984316;28;20662;-69
2022/08/20 06:28:40;;;;;;;12.88;9.40;;;;;;;24.22;57.13;101599.88;4991816;28;20276;-64
2022/08/20 06:31:06;;;;;;;12.48;7.18;;;;;;;24.13;57.36;101587.44;4983823;28;20030;-65
2022/08/20 06:33:32;;;;;;;10.45;7.15;;;;;;;24.21;57.56;101592.84;4980261;28;20467;-63
2022/08/20 06:35:58;;;;;;;9.77;6.70;;;;;;;24.18;57.60;101583.34;4983687;28;20076;-62
2022/08/20 06:38:24;;;;;;;9.77;7.90;;;;;;;24.20;57.61;101584.03;4980235;28;20085;-68
2022/08/20 06:40:49;;;;;;;12.48;6.88;;;;;;;24.21;57.73;101593.72;4964334;28;20555;-64
2022/08/20 06:43:14;;;;;;;23.42;17.75;;;;;;;24.19;56.99;101595.66;4970562;28;20520;-68
2022/08/20 06:45:40;;;;;;;28.03;18.43;;;;;;;23.93;57.40;101597.34;4976816;28;20074;-68
2022/08/20 06:48:10;;;;;;;26.23;18.67;;;;;;;23.61;58.73;101601.16;4980547;28;20279;-68
2022/08/20 06:50:40;;;;;;;32.58;20.88;;;;;;;23.27;60.05;101601.59;4983266;28;20045;-67
2022/08/20 06:53:06;;;;;;;24.38;19.60;;;;;;;23.03;60.90;101612.63;4982638;28;20076;-69
2022/08/20 06:55:32;;;;;;;27.85;21.13;;;;;;;22.75;62.11;101605.31;4970373;28;20500;-69
2022/08/20 06:58:00;;;;;;;24.75;20.23;;;;;;;22.55;63.32;101607.06;4982562;28;20030;-66
2022/08/20 07:00:27;;;;;;;26.98;22.10;;;;;;;22.38;63.12;101605.06;4964202;28;20049;-68
2022/08/20 07:02:52;;;;;;;26.30;21.63;;;;;;;22.17;64.16;101597.97;4976693;28;20034;-67
2022/08/20 07:05:18;;;;;;;29.33;22.13;;;;;;;22.10;65.12;101618.06;4973018;28;20845;-67
2022/08/20 07:07:46;;;;;;;28.20;21.25;;;;;;;21.97;65.83;101612.97;4963713;28;20257;-66
2022/08/20 07:10:13;;;;;;;30.63;23.08;;;;;;;21.88;66.05;101616.41;4963732;28;20034;-67
2022/08/20 07:12:39;;;;;;;28.13;22.55;;;;;;;21.77;66.39;101609.34;4968859;28;20030;-68
2022/08/20 07:15:07;;;;;;;28.63;22.63;;;;;;;21.72;66.93;101617.69;4981820;28;20463;-67
2022/08/20 07:17:33;;;;;;;28.48;22.75;;;;;;;21.63;67.34;101621.13;4968262;28;20325;-67
2022/08/20 07:20:04;;;;;;;27.42;22.23;;;;;;;21.59;67.48;101616.19;4966982;28;20554;-68
2022/08/20 07:22:30;;;;;;;28.33;22.05;;;;;;;21.51;67.27;101614.22;4963400;28;20035;-69
2022/08/20 07:24:55;;;;;;;30.00;21.92;;;;;;;21.53;67.19;101628.19;4964355;28;20062;-66
2022/08/20 07:27:22;;;;;;;30.27;21.93;;;;;;;21.48;67.71;101636.50;4977299;28;20039;-68
2022/08/20 07:32:35;;;;;;;27.38;21.65;;;;;;;21.46;67.83;101633.13;4963326;28;20080;-68
2022/08/20 07:35:07;;;;;;;28.67;21.55;;;;;;;21.40;68.05;101630.97;4978952;28;20045;-67
2022/08/20 07:37:41;;;;;;;25.33;21.27;;;;;;;21.43;68.24;101637.81;4974086;28;20088;-66
2022/08/20 07:40:11;;;;;;;25.90;20.38;;;;;;;21.40;68.19;101638.09;4963494;28;20050;-67
2022/08/20 07:42:38;;;;;;;28.38;20.25;;;;;;;21.34;67.98;101631.47;4963001;28;20042;-70
2022/08/20 07:45:09;;;;;;;26.92;21.20;;;;;;;21.35;68.94;101641.13;4973533;28;20035;-70
2022/08/20 07:47:40;;;;;;;29.48;20.33;;;;;;;21.35;68.29;101646.44;4962957;28;20046;-68
2022/08/20 07:50:08;;;;;;;26.27;18.85;;;;;;;21.43;69.25;101654.59;4966380;28;20035;-68
2022/08/20 07:52:34;;;;;;;29.75;20.40;;;;;;;21.49;68.80;101650.59;4972331;28;20022;-69
2022/08/20 07:55:01;;;;;;;25.95;20.70;;;;;;;21.54;69.87;101653.75;4975194;28;20042;-68
2022/08/20 07:57:26;;;;;;;25.90;19.85;;;;;;;21.53;68.85;101662.66;4963216;28;20030;-68
2022/08/20 07:59:52;;;;;;;28.40;20.67;;;;;;;21.52;70.16;101661.81;4978436;28;20482;-67
2022/08/20 08:02:17;;;;;;;25.52;20.88;;;;;;;21.52;70.18;101658.31;4982002;28;20256;-67
2022/08/20 08:04:42;;;;;;;25.70;20.73;;;;;;;21.58;69.69;101675.53;4981868;28;20157;-70
2022/08/20 08:07:08;;;;;;;22.88;19.58;;;;;;;21.55;69.20;101666.88;4974870;28;20292;-69
2022/08/20 08:09:34;;;;;;;26.95;19.55;;;;;;;21.55;69.16;101669.53;4962777;28;20485;-69
2022/08/20 08:12:01;;;;;;;21.30;18.02;;;;;;;21.53;68.23;101667.97;4966065;28;20467;-70
2022/08/20 08:14:30;;;;;;;24.73;19.55;;;;;;;21.56;69.65;101675.66;4974102;28;20146;-69
2022/08/20 08:16:59;;;;;;;26.08;19.73;;;;;;;21.58;68.94;101665.75;4970139;28;20035;-70
2022/08/20 08:19:32;;;;;;;24.38;18.30;;;;;;;21.62;70.15;101667.19;4971689;28;20034;-71
2022/08/20 08:21:57;;;;;;;21.58;18.27;;;;;;;21.67;70.02;101675.59;4966196;28;20034;-70
2022/08/20 08:24:23;;;;;;;22.67;16.50;;;;;;;21.67;68.98;101669.47;4960561;28;20035;-70
2022/08/20 08:26:48;;;;;;;18.63;15.18;;;;;;;21.66;67.74;101668.59;4962786;28;20285;-70
2022/08/20 08:29:15;;;;;;;21.45;15.77;;;;;;;21.65;66.94;101669.59;4962330;28;20034;-70
2022/08/20 08:31:41;;;;;;;23.58;17.35;;;;;;;21.63;67.67;101671.50;4975923;28;20205;-69
2022/08/20 08:34:06;;;;;;;21.92;17.35;;;;;;;21.70;67.71;101666.56;4979190;28;21218;-69
2022/08/20 08:36:31;;;;;;;22.73;16.33;;;;;;;21.76;68.10;101666.03;4966893;28;20042;-70
2022/08/20 08:38:57;;;;;;;19.23;15.87;;;;;;;21.78;66.99;101658.81;4962129;28;20438;-68
2022/08/20 08:41:30;;;;;;;21.43;16.43;;;;;;;21.84;69.74;101670.69;4973317;28;20268;-69
2022/08/20 08:44:06;;;;;;;17.90;12.60;;;;;;;21.87;65.69;101676.59;4966461;28;20338;-69
2022/08/20 08:46:36;;;;;;;17.55;10.05;;;;;;;21.84;63.24;101682.16;4982218;28;20487;-68
2022/08/20 08:49:02;;;;;;;17.27;10.90;;;;;;;21.84;64.31;101682.16;4963541;28;20030;-68
2022/08/20 08:51:34;;;;;;;18.55;12.30;;;;;;;21.84;65.03;101683.97;4966839;28;20390;-68
2022/08/20 08:54:00;;;;;;;18.08;11.10;;;;;;;21.90;64.84;101689.63;4967712;28;20529;-71
2022/08/20 08:56:28;;;;;;;15.45;11.20;;;;;;;21.90;65.84;101689.63;4966097;28;20126;-72
2022/08/20 08:58:59;;;;;;;13.05;10.27;;;;;;;21.89;67.51;101679.97;4965534;28;20537;-72
2022/08/20 09:01:25;;;;;;;15.55;10.32;;;;;;;21.84;63.79;101678.66;4974183;28;20126;-72
2022/08/20 09:03:51;;;;;;;15.15;10.40;;;;;;;21.85;63.93;101693.59;4985588;28;20145;-73
2022/08/20 09:06:21;;;;;;;13.75;10.13;;;;;;;21.79;64.77;101694.13;4983729;28;20045;-70
2022/08/20 09:08:49;;;;;;;13.35;10.07;;;;;;;21.71;64.08;101695.63;4967188;28;20046;-73
2022/08/20 09:11:18;;;;;;;15.88;10.45;;;;;;;21.55;65.93;101677.47;4965519;28;20085;-74
2022/08/20 09:13:43;;;;;;;15.40;10.52;;;;;;;21.61;66.16;101691.19;4964529;28;20034;-72
2022/08/20 09:16:10;;;;;;;16.02;10.20;;;;;;;21.68;64.58;101695.88;4969653;28;20525;-72
2022/08/20 09:18:35;;;;;;;14.32;8.43;;;;;;;21.71;61.46;101692.97;4978670;28;20023;-70
2022/08/20 09:21:01;;;;;;;12.32;6.50;;;;;;;21.77;62.55;101696.91;4973160;28;20026;-71
2022/08/20 09:23:26;;;;;;;12.02;7.40;;;;;;;21.78;62.76;101687.97;4977408;28;20037;-71
2022/08/20 09:25:51;;;;;;;10.30;6.75;;;;;;;21.83;60.50;101693.75;4985023;28;20072;-69
2022/08/20 09:28:17;;;;;;;11.32;6.57;;;;;;;21.82;60.44;101685.91;4984408;28;20030;-68
2022/08/20 09:30:42;;;;;;;14.73;6.32;;;;;;;21.94;59.82;101687.53;4984286;28;20130;-73
2022/08/20 09:33:07;;;;;;;10.52;5.40;;;;;;;21.92;61.23;101690.31;4970856;28;20031;-74
2022/08/20 09:35:33;;;;;;;10.32;5.95;;;;;;;21.97;62.22;101687.28;4973874;28;20038;-76
2022/08/20 09:37:59;;;;;;;10.20;6.15;;;;;;;22.02;61.49;101677.09;4971048;28;20500;-76
2022/08/20 09:40:24;;;;;;;10.90;5.57;;;;;;;22.13;61.04;101684.16;4984067;28;20046;-76
2022/08/20 09:42:50;;;;;;;9.75;5.35;;;;;;;22.21;60.73;101681.69;4977717;28;20041;-72
2022/08/20 09:45:15;;;;;;;11.63;5.70;;;;;;;22.31;59.72;101679.09;4969296;28;20432;-72
2022/08/20 09:47:41;;;;;;;9.65;5.30;;;;;;;22.48;60.21;101679.44;4970550;28;20062;-73
2022/08/20 09:50:07;;;;;;;11.40;5.32;;;;;;;22.56;59.72;101685.78;4983785;28;20038;-76
2022/08/20 09:52:36;;;;;;;7.95;4.68;;;;;;;22.52;56.37;101671.09;4969989;28;20481;-74
2022/08/20 09:55:26;;;;;;;8.63;4.10;;;;;;;22.58;55.40;101683.84;4969795;28;20165;-76
2022/08/20 09:57:52;;;;;;;10.65;5.07;;;;;;;22.58;56.83;101677.69;4983951;28;20030;-73
2022/08/20 10:00:18;;;;;;;10.75;5.22;;;;;;;22.69;56.92;101687.38;4965006;28;20376;-73
2022/08/20 10:02:44;;;;;;;10.70;5.00;;;;;;;22.73;56.68;101681.69;4974115;28;20031;-76
2022/08/20 10:05:10;;;;;;;9.57;4.80;;;;;;;22.85;57.91;101689.53;4970896;28;20034;-75
2022/08/20 10:07:40;;;;;;;11.52;5.72;;;;;;;22.87;56.49;101680.44;4964243;28;20039;-74
2022/08/20 10:10:08;;;;;;;6.68;3.95;;;;;;;22.97;54.68;101680.44;4996105;28;20145;-72
2022/08/20 10:12:33;;;;;;;9.13;4.00;;;;;;;23.03;53.11;101679.91;4979431;28;20030;-76
2022/08/20 10:14:58;;;;;;;7.95;3.90;;;;;;;23.13;54.19;101688.78;4976458;28;20038;-72
2022/08/20 10:17:23;;;;;;;6.93;3.63;;;;;;;23.22;52.85;101688.94;4970364;28;20330;-74
2022/08/20 10:19:49;;;;;;;7.03;3.58;;;;;;;23.25;51.65;101681.50;4966824;28;20260;-73
2022/08/20 10:22:14;;;;;;;9.52;4.10;;;;;;;23.33;52.43;101689.63;4966769;28;20046;-76
2022/08/20 10:24:39;;;;;;;7.45;3.10;;;;;;;23.36;52.08;101700.00;4969053;28;20050;-78
2022/08/20 10:27:05;;;;;;;9.40;3.10;;;;;;;23.36;51.86;101696.50;4973414;28;20149;-74
2022/08/20 10:29:31;;;;;;;10.00;3.20;;;;;;;23.38;51.76;101691.03;4983200;28;20030;-76
2022/08/20 10:31:56;;;;;;;8.57;3.40;;;;;;;23.38;53.45;101691.03;4983272;28;20374;-75
2022/08/20 10:34:24;;;;;;;8.63;3.20;;;;;;;23.39;52.10;101690.91;4983009;28;20486;-76
2022/08/20 10:36:49;;;;;;;7.10;3.38;;;;;;;23.38;51.94;101673.25;4972285;28;20043;-68
2022/08/20 10:39:15;;;;;;;8.35;3.75;;;;;;;23.45;51.80;101687.69;4970429;28;20045;-69
2022/08/20 10:41:40;;;;;;;8.00;3.55;;;;;;;23.49;51.88;101680.25;4976473;28;20038;-70
2022/08/20 10:44:06;;;;;;;8.38;3.63;;;;;;;23.54;52.32;101693.97;4974313;28;20473;-71
2022/08/20 10:46:31;;;;;;;8.73;4.20;;;;;;;23.54;51.65;101686.88;4970652;28;20038;-71
2022/08/20 10:48:57;;;;;;;8.45;3.10;;;;;;;23.49;50.77;101691.75;4973315;28;20464;-72
2022/08/20 10:51:22;;;;;;;8.75;2.85;;;;;;;23.46;48.92;101685.88;4969620;28;20077;-70
2022/08/20 10:53:47;;;;;;;6.70;2.70;;;;;;;23.43;48.61;101681.69;4972688;28;20049;-69
2022/08/20 10:56:12;;;;;;;7.25;2.38;;;;;;;23.48;51.32;101682.09;4983376;28;20283;-70
2022/08/20 10:58:38;;;;;;;7.78;3.10;;;;;;;23.54;50.53;101680.69;4983392;28;20034;-71
2022/08/20 11:01:03;;;;;;;6.55;3.00;;;;;;;23.59;50.80;101688.25;4982818;28;20031;-70
2022/08/20 11:03:29;;;;;;;6.72;3.30;;;;;;;23.70;51.51;101685.44;4980612;28;20030;-69
2022/08/20 11:05:54;;;;;;;7.20;2.90;;;;;;;23.76;52.22;101700.84;4966668;28;20045;-77
2022/08/20 11:08:19;;;;;;;7.88;2.70;;;;;;;23.78;51.06;101695.38;4970581;28;20264;-75
2022/08/20 11:10:44;;;;;;;8.27;2.70;;;;;;;23.81;50.47;101690.59;4967648;28;20030;-77
2022/08/20 11:13:11;;;;;;;6.82;2.50;;;;;;;23.83;49.98;101686.03;4983224;28;20656;-75
2022/08/20 11:15:40;;;;;;;6.80;2.15;;;;;;;23.98;50.26;101686.41;4976237;28;20037;-74
2022/08/20 11:18:05;;;;;;;6.95;2.20;;;;;;;24.05;49.51;101676.88;4969991;28;20037;-72
2022/08/20 11:20:31;;;;;;;4.65;2.20;;;;;;;24.11;50.11;101672.78;4981050;28;21254;-72
2022/08/20 11:22:57;;;;;;;7.40;2.22;;;;;;;24.16;49.52;101675.84;4971139;28;20038;-74
2022/08/20 11:25:23;;;;;;;7.55;2.40;;;;;;;24.20;47.47;101677.25;4967608;28;20062;-75
2022/08/20 11:27:50;;;;;;;7.70;2.45;;;;;;;24.19;47.58;101677.41;4978292;28;20034;-75
2022/08/20 11:30:23;;;;;;;5.18;1.88;;;;;;;24.23;46.87;101682.28;4971420;28;20027;-72